Richardson, TX

7:50 AM CST on December 27, 2014 (GMT -0600)
Northwest Richardson | Change Station
CLOSE
Current Station
Personal Weather Station
Location: Richardson, TX
Elevation: 625 ft
Nearby Weather Stations

Elev 625 ft 32.96 °N, 96.75 °W | Updated 10 minutes ago

Overcast
Overcast
42.6 °F
Feels Like 36 °F
N
11.4
Wind Variable Wind from NW
Gusts 15.8 mph

Today
High -- | Low -- °F
--% Chance of Precip.
Yesterday
High -- | Low -- °F
Precip. -- in
7:28 AM 5:27 PM
Waxing Crescent, 36% visible
Pressure 30.16 in
Visibility 10.0 miles
Clouds Scattered Clouds 1400 ft
Overcast 2600 ft
Windchill 36 °F
Dew Point 33 °F
Humidity 68%
Rainfall 0.04 in
Snow Depth Not available.
UV 0 out of 12
Pollen 10.70 out of 12
Air Quality Not available.
Flu Activity Not available.
METAR KADS 271247Z 35011G22KT 10SM SCT014 OVC026 05/02 A3016

More Conditions Fewer Conditions

Pressure 30.16 in
Visibility 10.0 miles
Clouds Scattered Clouds 1400 ft
Overcast 2600 ft
Windchill 36 °F
Dew Point 33 °F
Humidity 68%
Rainfall 0.04 in
Snow Depth Not available.
UV 0 out of 12
Pollen 10.70 out of 12
Air Quality Not available.
Flu Activity Not available.
METAR KADS 271247Z 35011G22KT 10SM SCT014 OVC026 05/02 A3016

More Conditions Fewer Conditions

Nowcast | as of 7:35 am CST on December 27, 2014

A cold front will move from an Athens to Hearne line and exit the region by 9 am. Scattered showers will continue near and just ahead of the front. Total rainfall amounts will average less than one tenth of an inch for areas that do receive rain. A second area of precipitation between Abilene and Wichita Falls at 7 am will move east northeast through the morning. Light rain may mix with sleet and light snow...generally northwest of a line from Gainesville to Weatherford to Eastland. No significant accumulations are expected.

×

10-Day Weather Forecast

Almanac

Astronomy

Dec. 27, 2014 Rise Set
Actual Time
Civil Twilight
Nautical Twilight
Astronomical Twilight
Moon
Length of Visible Light
Length of Day
Tomorrow will be .
, % of the Moon is Illuminated

Today's Extremes

State Highs State Lows

Community

WunderPhotos

Upload Photos

1,780,899 photos uploaded!

WunderBlogs® & News

Nearby

Air Quality

  Air Quality AQ Index Pollutant
Not available.

Snow Depth

Station Depth Elevation

Earthquake Activity

City Distance Mag. Time & Date
Minimum magnitude displayed is 2.5.

Coastal Water Temperatures

Place Temperature

Nearby Weather Stations